Time;durP1;ratioP1;P1;durP2;ratioP2;P2;SDS_P1;SDS_P2;PMS_P1;PMS_P2;Temp;Humidity;BMP_temperature;BMP_pressure;BME280_temperature;BME280_humidity;BME280_pressure;Samples;Min_cycle;Max_cycle;Signal;HPM_P1;HPM_P2
2023/12/27 00:01:33;;;;;;;;;;;;;;;7.32;65.06;99838.75;5070623;28;19913;-82
2023/12/27 00:03:59;;;;;;;;;;;;;;;7.32;65.94;99843.19;5071826;28;20393;-81
2023/12/27 00:06:24;;;;;;;;;;;;;;;7.36;65.67;99836.66;5071973;28;19921;-81
2023/12/27 00:08:49;;;;;;;;;;;;;;;7.35;65.17;99845.50;5071796;28;19916;-80
2023/12/27 00:11:18;;;;;;;;;;;;;;;7.36;65.51;99841.91;5070511;28;19912;-81
2023/12/27 00:13:43;;;;;;;;;;;;;;;7.38;65.29;99845.19;5071918;28;19965;-82
2023/12/27 00:16:08;;;;;;;;;;;;;;;7.36;65.35;99848.97;5071886;28;20401;-82
2023/12/27 00:18:34;;;;;;;;;;;;;;;7.34;64.95;99843.84;5071913;28;19912;-83
2023/12/27 00:20:59;;;;;;;;;;;;;;;7.32;65.50;99846.63;5072011;28;20381;-83
2023/12/27 00:23:25;;;;;;;;;;;;;;;7.29;64.99;99857.44;5071883;28;19969;-82
2023/12/27 00:25:51;;;;;;;;;;;;;;;7.25;65.69;99856.09;5070792;28;19980;-83
2023/12/27 00:28:16;;;;;;;;;;;;;;;7.25;65.05;99852.63;5070404;28;20456;-81
2023/12/27 00:30:41;;;;;;;;;;;;;;;7.28;65.05;99850.53;5070242;28;19912;-81
2023/12/27 00:33:07;;;;;;;;;;;;;;;7.33;65.31;99860.59;5071535;28;20290;-81
2023/12/27 00:35:32;;;;;;;;;;;;;;;7.35;65.19;99861.25;5070276;28;20294;-82
2023/12/27 00:37:57;;;;;;;;;;;;;;;7.32;65.00;99859.75;5070307;28;20370;-81
2023/12/27 00:40:22;;;;;;;;;;;;;;;7.24;64.77;99851.81;5071774;28;19913;-81
2023/12/27 00:42:48;;;;;;;;;;;;;;;7.25;65.01;99852.63;5071619;28;20030;-82
2023/12/27 00:45:14;;;;;;;;;;;;;;;7.23;64.91;99850.16;5070280;28;20019;-81
2023/12/27 00:47:43;;;;;;;;;;;;;;;7.21;65.53;99854.72;5071698;28;19931;-82
2023/12/27 00:50:08;;;;;;;;;;;;;;;7.23;64.90;99865.91;5070341;28;20365;-82
2023/12/27 00:52:34;;;;;;;;;;;;;;;7.24;65.57;99858.84;5071699;28;20003;-81
2023/12/27 00:54:59;;;;;;;;;;;;;;;7.24;64.95;99870.19;5070208;28;19912;-83
2023/12/27 00:57:25;;;;;;;;;;;;;;;7.22;65.11;99866.06;5072036;28;20404;-81
2023/12/27 00:59:50;;;;;;;;;;;;;;;7.17;64.71;99868.31;5070193;28;20344;-81
2023/12/27 01:02:15;;;;;;;;;;;;;;;7.13;65.26;99880.06;5070114;28;19919;-81
2023/12/27 01:04:40;;;;;;;;;;;;;;;7.09;64.77;99870.84;5071515;28;20434;-81
2023/12/27 01:07:06;;;;;;;;;;;;;;;6.93;64.63;99874.94;5073015;28;19920;-81
2023/12/27 01:09:31;;;;;;;;;;;;;;;6.93;64.92;99882.81;5075062;28;19999;-83
2023/12/27 01:11:56;;;;;;;;;;;;;;;6.89;64.74;99889.31;5073688;28;19912;-83
2023/12/27 01:14:22;;;;;;;;;;;;;;;6.83;65.19;99889.91;5073934;28;19913;-82
2023/12/27 01:16:47;;;;;;;;;;;;;;;6.74;65.55;99897.84;5073845;28;19916;-80
2023/12/27 01:19:12;;;;;;;;;;;;;;;6.69;64.82;99887.78;5075071;28;20001;-80
2023/12/27 01:21:37;;;;;;;;;;;;;;;6.69;65.57;99879.91;5075089;28;19918;-82
2023/12/27 01:24:03;;;;;;;;;;;;;;;6.72;65.54;99882.22;5075169;28;19912;-81
2023/12/27 01:26:28;;;;;;;;;;;;;;;6.76;65.35;99873.09;5074826;28;19913;-81
2023/12/27 01:28:53;;;;;;;;;;;;;;;6.75;64.41;99868.81;5073514;28;19917;-83
2023/12/27 01:31:19;;;;;;;;;;;;;;;6.76;65.16;99870.47;5074862;28;20457;-81
2023/12/27 01:33:44;;;;;;;;;;;;;;;6.77;64.91;99881.78;5074837;28;20416;-81
2023/12/27 01:36:09;;;;;;;;;;;;;;;6.76;65.09;99867.84;5074906;28;19970;-81
2023/12/27 01:38:35;;;;;;;;;;;;;;;6.72;65.68;99884.84;5074573;28;19956;-81
2023/12/27 01:41:00;;;;;;;;;;;;;;;6.72;65.57;99873.53;5073289;28;19913;-83
2023/12/27 01:43:25;;;;;;;;;;;;;;;6.69;65.12;99880.72;5074550;28;20003;-81
2023/12/27 01:45:51;;;;;;;;;;;;;;;6.67;65.67;99869.50;5073466;28;19912;-82
2023/12/27 01:48:20;;;;;;;;;;;;;;;6.68;65.34;99862.47;5074449;28;19924;-82
2023/12/27 01:50:45;;;;;;;;;;;;;;;6.64;65.39;99882.09;5073229;28;19948;-81
2023/12/27 01:53:11;;;;;;;;;;;;;;;6.61;64.91;99885.84;5073233;28;19956;-81
2023/12/27 01:55:36;;;;;;;;;;;;;;;6.57;65.67;99868.72;5074266;28;20381;-81
2023/12/27 01:58:02;;;;;;;;;;;;;;;6.59;65.31;99877.28;5073079;28;20003;-83
2023/12/27 02:00:27;;;;;;;;;;;;;;;6.60;65.64;99865.81;5074222;28;20011;-83
2023/12/27 02:02:53;;;;;;;;;;;;;;;6.61;65.54;99871.91;5075135;28;20286;-83
2023/12/27 02:05:19;;;;;;;;;;;;;;;6.62;64.95;99873.53;5081556;28;19960;-82
2023/12/27 02:07:45;;;;;;;;;;;;;;;6.62;65.65;99871.75;5077911;28;19917;-82
2023/12/27 02:10:11;;;;;;;;;;;;;;;6.60;64.55;99878.94;5074427;28;19916;-82
2023/12/27 02:12:36;;;;;;;;;;;;;;;6.58;64.90;99883.50;5074004;28;20424;-81
2023/12/27 02:15:01;;;;;;;;;;;;;;;6.59;65.29;99879.91;5073751;28;19918;-81
2023/12/27 02:17:27;;;;;;;;;;;;;;;6.59;65.46;99879.91;5073359;28;20010;-81
2023/12/27 02:19:53;;;;;;;;;;;;;;;6.57;65.26;99881.03;5074078;28;19959;-82
2023/12/27 02:22:19;;;;;;;;;;;;;;;6.56;64.93;99889.88;5072692;28;20301;-80
2023/12/27 02:24:46;;;;;;;;;;;;;;;6.56;64.87;99884.63;5073615;28;19916;-81
2023/12/27 02:27:12;;;;;;;;;;;;;;;6.53;64.91;99888.34;5073763;28;19921;-81
2023/12/27 02:29:37;;;;;;;;;;;;;;;6.55;64.77;99881.16;5073548;28;19920;-81
2023/12/27 02:32:03;;;;;;;;;;;;;;;6.56;65.46;99892.47;5073585;28;19951;-81
2023/12/27 02:34:28;;;;;;;;;;;;;;;6.55;65.26;99890.84;5072393;28;20304;-82
2023/12/27 02:36:53;;;;;;;;;;;;;;;6.54;65.44;99897.06;5072311;28;19963;-81
2023/12/27 02:39:19;;;;;;;;;;;;;;;6.54;65.27;99891.81;5073402;28;19942;-81
2023/12/27 02:41:44;;;;;;;;;;;;;;;6.53;65.12;99888.34;5073572;28;19912;-82
2023/12/27 02:44:09;;;;;;;;;;;;;;;6.56;65.38;99885.44;5072230;28;19913;-81
2023/12/27 02:46:35;;;;;;;;;;;;;;;6.59;64.86;99889.56;5072459;28;19986;-81
2023/12/27 02:49:00;;;;;;;;;;;;;;;6.59;65.60;99892.19;5072100;28;19924;-83
2023/12/27 02:51:25;;;;;;;;;;;;;;;6.55;65.41;99899.53;5071988;28;20370;-81
2023/12/27 02:53:50;;;;;;;;;;;;;;;6.57;65.15;99889.72;5071944;28;19939;-81
2023/12/27 02:56:16;;;;;;;;;;;;;;;6.53;65.33;99884.91;5073057;28;19912;-81
2023/12/27 02:58:41;;;;;;;;;;;;;;;6.50;65.05;99891.25;5073211;28;19970;-81
2023/12/27 03:01:07;;;;;;;;;;;;;;;6.52;65.53;99899.00;5071726;28;20380;-81
2023/12/27 03:03:32;;;;;;;;;;;;;;;6.54;65.17;99899.66;5073088;28;20444;-81
2023/12/27 03:05:57;;;;;;;;;;;;;;;6.53;65.44;99911.97;5072764;28;19970;-83
2023/12/27 03:08:22;;;;;;;;;;;;;;;6.51;65.25;99902.59;5072874;28;20297;-83
2023/12/27 03:10:48;;;;;;;;;;;;;;;6.50;65.28;99919.28;5072945;28;19912;-81
2023/12/27 03:13:13;;;;;;;;;;;;;;;6.45;64.80;99924.97;5072766;28;20297;-82
2023/12/27 03:15:39;;;;;;;;;;;;;;;6.37;65.46;99917.81;5071616;28;20007;-81
2023/12/27 03:18:04;;;;;;;;;;;;;;;6.37;65.15;99919.59;5072863;28;20400;-84
2023/12/27 03:20:29;;;;;;;;;;;;;;;6.38;65.60;99921.25;5072930;28;19920;-81
2023/12/27 03:22:54;;;;;;;;;;;;;;;6.37;64.97;99917.81;5071561;28;19920;-81
2023/12/27 03:25:20;;;;;;;;;;;;;;;6.35;65.47;99917.13;5071509;28;20389;-81
2023/12/27 03:27:45;;;;;;;;;;;;;;;6.37;64.84;99917.81;5070879;28;19922;-81
2023/12/27 03:30:11;;;;;;;;;;;;;;;6.33;64.98;99932.16;5072130;28;20397;-81
2023/12/27 03:32:36;;;;;;;;;;;;;;;6.28;64.85;99934.38;5072840;28;19913;-81
2023/12/27 03:35:02;;;;;;;;;;;;;;;6.24;65.09;99940.88;5071194;28;20305;-82
2023/12/27 03:37:27;;;;;;;;;;;;;;;6.20;65.00;99934.25;5071125;28;20380;-81
2023/12/27 03:39:53;;;;;;;;;;;;;;;6.12;65.34;99935.94;5072515;28;20000;-82
2023/12/27 03:42:19;;;;;;;;;;;;;;;6.15;65.25;99936.47;5071244;28;19926;-81
2023/12/27 03:44:45;;;;;;;;;;;;;;;6.13;65.02;99941.03;5072377;28;19917;-81
2023/12/27 03:47:10;;;;;;;;;;;;;;;6.09;65.50;99944.91;5072527;28;20297;-81
2023/12/27 03:49:35;;;;;;;;;;;;;;;6.10;65.23;99943.94;5072247;28;20377;-81
2023/12/27 03:52:00;;;;;;;;;;;;;;;6.15;65.27;99944.34;5072250;28;19916;-80
2023/12/27 03:54:26;;;;;;;;;;;;;;;6.16;65.19;99932.91;5072128;28;19991;-80
2023/12/27 03:56:51;;;;;;;;;;;;;;;6.19;65.85;99944.91;5072051;28;20336;-81
2023/12/27 03:59:16;;;;;;;;;;;;;;;6.22;65.34;99942.81;5072205;28;20374;-81
2023/12/27 04:01:41;;;;;;;;;;;;;;;6.24;65.83;99954.00;5070741;28;19919;-81
2023/12/27 04:04:07;;;;;;;;;;;;;;;6.25;65.14;99953.03;5072038;28;19975;-80
2023/12/27 04:06:33;;;;;;;;;;;;;;;6.23;65.47;99957.59;5070883;28;19955;-81
2023/12/27 04:08:58;;;;;;;;;;;;;;;6.23;65.94;99952.34;5070761;28;19955;-81
2023/12/27 04:11:23;;;;;;;;;;;;;;;6.21;65.50;99953.44;5072228;28;19916;-81
2023/12/27 04:13:48;;;;;;;;;;;;;;;6.20;65.30;99963.09;5072052;28;20401;-82
2023/12/27 04:16:14;;;;;;;;;;;;;;;6.19;65.73;99965.88;5072009;28;19952;-81
2023/12/27 04:18:39;;;;;;;;;;;;;;;6.22;65.71;99966.41;5072135;28;19912;-81
2023/12/27 04:21:04;;;;;;;;;;;;;;;6.24;65.53;99972.34;5071922;28;20392;-81
2023/12/27 04:23:30;;;;;;;;;;;;;;;6.27;65.36;99977.31;5072072;28;19967;-81
2023/12/27 04:25:55;;;;;;;;;;;;;;;6.30;65.28;99965.72;5070444;28;19973;-82
2023/12/27 04:28:21;;;;;;;;;;;;;;;6.28;65.30;99984.22;5070520;28;20011;-81
2023/12/27 04:30:46;;;;;;;;;;;;;;;6.30;65.25;99982.28;5071834;28;19919;-83
2023/12/27 04:33:11;;;;;;;;;;;;;;;6.23;65.35;99982.97;5070437;28;19919;-83
2023/12/27 04:35:36;;;;;;;;;;;;;;;6.22;65.76;99976.91;5070539;28;19916;-81
2023/12/27 04:38:02;;;;;;;;;;;;;;;6.22;65.33;99982.16;5070309;28;19919;-81
2023/12/27 04:40:28;;;;;;;;;;;;;;;6.22;65.24;99983.94;5072729;28;19913;-81
2023/12/27 04:42:53;;;;;;;;;;;;;;;6.23;65.35;99972.50;5074478;28;19927;-81
2023/12/27 04:45:18;;;;;;;;;;;;;;;6.26;65.45;99980.91;5075581;28;20317;-82
2023/12/27 04:47:44;;;;;;;;;;;;;;;6.26;65.19;99975.66;5075506;28;19924;-83
2023/12/27 04:50:09;;;;;;;;;;;;;;;6.26;65.31;99980.06;5075759;28;20374;-82
2023/12/27 04:52:34;;;;;;;;;;;;;;;6.22;65.26;99978.69;5074474;28;19913;-83
2023/12/27 04:55:00;;;;;;;;;;;;;;;6.21;65.75;99974.41;5075662;28;19996;-82
2023/12/27 04:57:25;;;;;;;;;;;;;;;6.20;65.14;99981.47;5075757;28;19977;-83
2023/12/27 04:59:50;;;;;;;;;;;;;;;6.19;65.45;99987.66;5075993;28;19912;-84
2023/12/27 05:02:15;;;;;;;;;;;;;;;6.17;65.02;99986.97;5076628;28;19999;-81
2023/12/27 05:04:41;;;;;;;;;;;;;;;6.16;65.12;99997.59;5074046;28;20385;-82
2023/12/27 05:07:06;;;;;;;;;;;;;;;6.14;65.38;100010.03;5075298;28;20308;-81
2023/12/27 05:09:31;;;;;;;;;;;;;;;6.10;64.90;99999.00;5075155;28;19913;-82
2023/12/27 05:11:56;;;;;;;;;;;;;;;6.06;65.32;100005.47;5073706;28;19913;-81
2023/12/27 05:14:22;;;;;;;;;;;;;;;6.06;65.29;100005.47;5075127;28;20456;-82
2023/12/27 05:16:47;;;;;;;;;;;;;;;6.05;66.11;100017.75;5075621;28;19920;-83
2023/12/27 05:19:12;;;;;;;;;;;;;;;6.10;65.58;100030.44;5075174;28;20046;-81
2023/12/27 05:21:38;;;;;;;;;;;;;;;6.09;65.01;100034.03;5073727;28;19956;-81
2023/12/27 05:24:03;;;;;;;;;;;;;;;6.02;65.37;100032.94;5074868;28;20328;-83
2023/12/27 05:26:28;;;;;;;;;;;;;;;6.03;65.14;100034.59;5075331;28;20305;-81
2023/12/27 05:28:53;;;;;;;;;;;;;;;6.02;65.68;100040.78;5073437;28;20011;-84
2023/12/27 05:31:19;;;;;;;;;;;;;;;6.05;65.55;100059.69;5074789;28;19920;-81
2023/12/27 05:33:44;;;;;;;;;;;;;;;6.05;65.45;100061.47;5074971;28;20053;-82
2023/12/27 05:36:10;;;;;;;;;;;;;;;6.09;65.13;100057.63;5074788;28;19913;-81
2023/12/27 05:38:35;;;;;;;;;;;;;;;6.11;65.27;100057.50;5073437;28;19919;-82
2023/12/27 05:41:00;;;;;;;;;;;;;;;6.11;65.00;100060.94;5074715;28;19912;-81
2023/12/27 05:43:25;;;;;;;;;;;;;;;6.10;65.06;100061.91;5073488;28;19912;-81
2023/12/27 05:45:51;;;;;;;;;;;;;;;6.13;65.04;100068.66;5074774;28;19913;-81
2023/12/27 05:48:16;;;;;;;;;;;;;;;6.17;65.34;100075.28;5074479;28;20371;-84
2023/12/27 05:50:41;;;;;;;;;;;;;;;6.18;64.89;100067.28;5073018;28;19913;-81
2023/12/27 05:53:06;;;;;;;;;;;;;;;6.19;64.95;100078.59;5073842;28;20377;-81
2023/12/27 05:55:32;;;;;;;;;;;;;;;6.20;65.20;100085.50;5073213;28;19912;-81
2023/12/27 05:57:57;;;;;;;;;;;;;;;6.20;64.86;100091.59;5073197;28;19934;-81
2023/12/27 06:00:23;;;;;;;;;;;;;;;6.20;64.95;100106.47;5073624;28;19963;-82
2023/12/27 06:02:48;;;;;;;;;;;;;;;6.20;65.02;100107.31;5073054;28;19952;-80
2023/12/27 06:05:13;;;;;;;;;;;;;;;6.19;65.20;100097.78;5072994;28;19912;-81
2023/12/27 06:07:39;;;;;;;;;;;;;;;6.19;64.90;100102.19;5072799;28;19920;-82
2023/12/27 06:10:05;;;;;;;;;;;;;;;6.19;64.95;100104.81;5073969;28;19952;-82
2023/12/27 06:12:30;;;;;;;;;;;;;;;6.18;65.56;100100.53;5072537;28;20003;-82
2023/12/27 06:14:55;;;;;;;;;;;;;;;6.21;65.02;100103.72;5072814;28;20013;-81
2023/12/27 06:17:21;;;;;;;;;;;;;;;6.22;64.96;100104.56;5074355;28;19919;-82
2023/12/27 06:19:46;;;;;;;;;;;;;;;6.23;65.27;100104.41;5073920;28;20419;-82
2023/12/27 06:22:11;;;;;;;;;;;;;;;6.23;65.38;100111.47;5073870;28;19909;-81
2023/12/27 06:24:36;;;;;;;;;;;;;;;6.23;65.32;100107.03;5072774;28;19919;-82
2023/12/27 06:27:02;;;;;;;;;;;;;;;6.26;65.50;100113.81;5072533;28;20396;-84
2023/12/27 06:29:27;;;;;;;;;;;;;;;6.29;65.25;100110.91;5072600;28;19918;-82
2023/12/27 06:31:52;;;;;;;;;;;;;;;6.33;65.08;100114.91;5073755;28;19912;-79
2023/12/27 06:34:18;;;;;;;;;;;;;;;6.35;65.49;100103.31;5072600;28;19913;-81
2023/12/27 06:36:44;;;;;;;;;;;;;;;6.39;65.64;100111.75;5072415;28;19913;-80
2023/12/27 06:39:09;;;;;;;;;;;;;;;6.43;65.36;100100.00;5072274;28;19913;-82
2023/12/27 06:41:34;;;;;;;;;;;;;;;6.46;65.75;100106.78;5073355;28;19935;-82
2023/12/27 06:43:59;;;;;;;;;;;;;;;6.53;65.98;100107.88;5073347;28;19973;-84
2023/12/27 06:46:25;;;;;;;;;;;;;;;6.62;65.65;100104.44;5072480;28;19912;-81
2023/12/27 06:48:50;;;;;;;;;;;;;;;6.72;65.78;100109.69;5071890;28;19917;-83
2023/12/27 06:51:16;;;;;;;;;;;;;;;6.80;65.73;100121.16;5073388;28;20409;-82
2023/12/27 06:53:41;;;;;;;;;;;;;;;6.99;65.55;100122.91;5073591;28;19913;-83
2023/12/27 06:56:06;;;;;;;;;;;;;;;7.33;66.21;100125.88;5072714;28;19912;-83
2023/12/27 06:58:32;;;;;;;;;;;;;;;7.77;64.71;100129.59;5073235;28;19919;-80
2023/12/27 07:00:57;;;;;;;;;;;;;;;8.14;63.87;100147.94;5072995;28;20386;-82
2023/12/27 07:03:23;;;;;;;;;;;;;;;8.45;64.13;100145.03;5072921;28;19944;-80
2023/12/27 07:05:49;;;;;;;;;;;;;;;8.70;62.98;100146.09;5072828;28;20397;-83
2023/12/27 07:08:14;;;;;;;;;;;;;;;8.89;63.05;100148.56;5071483;28;19916;-82
2023/12/27 07:10:39;;;;;;;;;;;;;;;9.05;62.68;100155.78;5071499;28;19919;-81
2023/12/27 07:13:04;;;;;;;;;;;;;;;9.14;62.01;100163.59;5071521;28;19912;-82
2023/12/27 07:15:31;;;;;;;;;;;;;;;9.23;62.56;100167.13;5072654;28;19929;-82
2023/12/27 07:17:57;;;;;;;;;;;;;;;9.32;62.25;100160.91;5071338;28;19919;-82
2023/12/27 07:20:22;;;;;;;;;;;;;;;9.36;62.33;100162.25;5071469;28;19912;-83
2023/12/27 07:22:49;;;;;;;;;;;;;;;9.40;62.23;100182.06;5071502;28;19912;-82
2023/12/27 07:25:14;;;;;;;;;;;;;;;9.41;62.20;100186.34;5072517;28;19924;-82
2023/12/27 07:27:39;;;;;;;;;;;;;;;9.42;62.49;100188.00;5072429;28;19916;-82
2023/12/27 07:30:05;;;;;;;;;;;;;;;9.46;62.49;100189.34;5072386;28;19913;-82
2023/12/27 07:32:30;;;;;;;;;;;;;;;9.51;62.23;100197.63;5071029;28;20308;-82
2023/12/27 07:34:57;;;;;;;;;;;;;;;9.55;62.72;100196.31;5071083;28;19913;-81
2023/12/27 07:37:23;;;;;;;;;;;;;;;9.62;62.46;100204.44;5071062;28;19919;-82
2023/12/27 07:39:48;;;;;;;;;;;;;;;9.68;62.20;100197.75;5072321;28;19995;-81
2023/12/27 07:42:14;;;;;;;;;;;;;;;9.75;62.62;100204.03;5070911;28;19916;-80
2023/12/27 07:44:39;;;;;;;;;;;;;;;9.87;61.82;100205.41;5072119;28;20397;-81
2023/12/27 07:47:06;;;;;;;;;;;;;;;9.95;62.01;100205.47;5071976;28;20007;-81
2023/12/27 07:49:31;;;;;;;;;;;;;;;10.04;61.46;100207.16;5070715;28;19913;-82
2023/12/27 07:51:57;;;;;;;;;;;;;;;10.09;61.34;100210.16;5070748;28;19919;-81
2023/12/27 07:54:22;;;;;;;;;;;;;;;10.23;60.92;100213.19;5072034;28;19912;-81
2023/12/27 07:56:47;;;;;;;;;;;;;;;10.31;61.50;100218.50;5070772;28;20396;-80
2023/12/27 07:59:13;;;;;;;;;;;;;;;10.35;60.49;100218.03;5070710;28;19919;-81
2023/12/27 08:01:38;;;;;;;;;;;;;;;10.40;60.71;100220.19;5071954;28;19913;-81
2023/12/27 08:04:03;;;;;;;;;;;;;;;10.45;61.28;100231.94;5071940;28;19912;-81
2023/12/27 08:06:28;;;;;;;;;;;;;;;10.52;60.95;100232.13;5070215;28;19921;-81
2023/12/27 08:08:55;;;;;;;;;;;;;;;10.56;60.37;100233.47;5070472;28;19917;-82
2023/12/27 08:11:21;;;;;;;;;;;;;;;10.63;60.81;100231.81;5070590;28;19920;-82
2023/12/27 08:13:46;;;;;;;;;;;;;;;10.71;60.18;100238.94;5070397;28;19912;-81
2023/12/27 08:16:12;;;;;;;;;;;;;;;10.76;60.49;100232.19;5070218;28;19919;-82
2023/12/27 08:18:37;;;;;;;;;;;;;;;10.82;60.21;100234.19;5071841;28;19916;-80
2023/12/27 08:21:04;;;;;;;;;;;;;;;10.91;59.85;100235.00;5070530;28;20007;-82
2023/12/27 08:23:30;;;;;;;;;;;;;;;10.97;60.01;100246.75;5072081;28;19931;-82
2023/12/27 08:25:55;;;;;;;;;;;;;;;11.02;59.16;100241.78;5070521;28;19920;-81
2023/12/27 08:28:21;;;;;;;;;;;;;;;11.06;59.88;100246.59;5072017;28;20414;-82
2023/12/27 08:30:46;;;;;;;;;;;;;;;11.11;59.36;100246.91;5071117;28;19948;-80
2023/12/27 08:33:12;;;;;;;;;;;;;;;11.15;59.09;100247.44;5070611;28;19938;-82
2023/12/27 08:35:37;;;;;;;;;;;;;;;11.20;58.57;100257.53;5072001;28;19952;-82
2023/12/27 08:38:03;;;;;;;;;;;;;;;11.22;58.31;100253.72;5071660;28;19912;-82
2023/12/27 08:40:28;;;;;;;;;;;;;;;11.25;58.33;100253.41;5071724;28;19919;-82
2023/12/27 08:42:54;;;;;;;;;;;;;;;11.32;58.53;100250.91;5071638;28;20400;-81
2023/12/27 08:45:19;;;;;;;;;;;;;;;11.33;57.40;100256.03;5070233;28;20308;-81
2023/12/27 08:47:45;;;;;;;;;;;;;;;11.37;57.59;100254.72;5071495;28;19917;-81
2023/12/27 08:50:10;;;;;;;;;;;;;;;11.38;57.92;100252.91;5071348;28;20395;-81
2023/12/27 08:52:36;;;;;;;;;;;;;;;11.37;57.88;100252.06;5070137;28;19920;-81
2023/12/27 08:55:03;;;;;;;;;;;;;;;11.33;57.64;100257.88;5071463;28;19916;-81
2023/12/27 08:57:28;;;;;;;;;;;;;;;11.32;57.84;100258.84;5071314;28;20389;-82
2023/12/27 08:59:53;;;;;;;;;;;;;;;11.30;58.08;100260.84;5072087;28;19925;-82
2023/12/27 09:02:19;;;;;;;;;;;;;;;11.29;58.17;100267.13;5071889;28;19919;-81
2023/12/27 09:04:44;;;;;;;;;;;;;;;11.25;57.88;100266.63;5071738;28;19912;-81
2023/12/27 09:07:09;;;;;;;;;;;;;;;11.25;57.77;100263.97;5070010;28;19978;-82
2023/12/27 09:09:35;;;;;;;;;;;;;;;11.26;57.73;100260.34;5070522;28;19923;-81
2023/12/27 09:12:01;;;;;;;;;;;;;;;11.28;57.21;100266.28;5071723;28;20439;-81
2023/12/27 09:14:26;;;;;;;;;;;;;;;11.33;58.10;100257.88;5070384;28;19934;-81
2023/12/27 09:16:52;;;;;;;;;;;;;;;11.36;56.80;100253.06;5071695;28;20437;-81
2023/12/27 09:19:17;;;;;;;;;;;;;;;11.44;57.19;100239.84;5071879;28;19919;-81
2023/12/27 09:21:43;;;;;;;;;;;;;;;11.51;57.04;100240.00;5071775;28;19912;-81
2023/12/27 09:24:09;;;;;;;;;;;;;;;11.56;57.03;100247.44;5071703;28;19919;-81
2023/12/27 09:26:34;;;;;;;;;;;;;;;11.59;57.11;100245.28;5070958;28;19913;-81
2023/12/27 09:28:59;;;;;;;;;;;;;;;11.62;57.35;100236.19;5075027;28;19912;-80
2023/12/27 09:31:29;;;;;;;;;;;;;;;11.66;57.01;100232.22;5075137;28;19969;-81
2023/12/27 09:33:55;;;;;;;;;;;;;;;11.73;57.12;100214.66;5073792;28;19913;-81
2023/12/27 09:36:23;;;;;;;;;;;;;;;11.80;57.00;100222.78;5073952;28;19912;-81
2023/12/27 09:38:48;;;;;;;;;;;;;;;11.83;56.08;100210.03;5073735;28;19913;-81
2023/12/27 09:41:14;;;;;;;;;;;;;;;11.93;56.95;100221.28;5074638;28;20032;-82
2023/12/27 09:43:41;;;;;;;;;;;;;;;12.00;56.65;100213.50;5073170;28;20356;-81
2023/12/27 09:46:07;;;;;;;;;;;;;;;12.04;56.05;100210.34;5074454;28;19913;-81
2023/12/27 09:48:35;;;;;;;;;;;;;;;12.07;55.24;100202.06;5074211;28;20318;-81
2023/12/27 09:51:01;;;;;;;;;;;;;;;12.15;55.93;100192.44;5074481;28;19923;-81
2023/12/27 09:53:26;;;;;;;;;;;;;;;12.22;55.93;100204.81;5073078;28;19916;-81
2023/12/27 09:55:52;;;;;;;;;;;;;;;12.28;55.77;100200.63;5074062;28;19912;-81
2023/12/27 09:58:18;;;;;;;;;;;;;;;12.37;56.31;100204.91;5073903;28;19958;-81
2023/12/27 10:00:45;;;;;;;;;;;;;;;12.45;56.07;100191.59;5074074;28;19944;-81
2023/12/27 10:03:13;;;;;;;;;;;;;;;12.53;55.03;100183.63;5072857;28;19916;-81
2023/12/27 10:05:38;;;;;;;;;;;;;;;12.62;55.22;100185.22;5072147;28;20436;-81
2023/12/27 10:08:04;;;;;;;;;;;;;;;12.72;55.61;100191.13;5073678;28;19937;-81
2023/12/27 10:10:32;;;;;;;;;;;;;;;12.78;54.15;100184.31;5073845;28;19912;-81
2023/12/27 10:12:59;;;;;;;;;;;;;;;12.88;54.31;100184.06;5073849;28;19913;-81
2023/12/27 10:15:24;;;;;;;;;;;;;;;12.98;54.99;100185.47;5073720;28;20305;-81
2023/12/27 10:17:50;;;;;;;;;;;;;;;13.07;55.93;100185.41;5072290;28;19904;-81
2023/12/27 10:20:32;;;;;;;;;;;;;;;13.14;53.62;100178.38;5073679;28;19920;-81
2023/12/27 10:22:58;;;;;;;;;;;;;;;13.23;54.72;100175.53;5073816;28;20301;-81
2023/12/27 10:25:26;;;;;;;;;;;;;;;13.28;52.90;100177.63;5073513;28;19912;-81
2023/12/27 10:27:51;;;;;;;;;;;;;;;13.34;53.60;100168.97;5071968;28;20004;-81
2023/12/27 10:30:18;;;;;;;;;;;;;;;13.39;52.70;100163.13;5073868;28;20038;-81
2023/12/27 10:32:43;;;;;;;;;;;;;;;13.43;53.23;100173.22;5073573;28;19956;-81
2023/12/27 10:35:09;;;;;;;;;;;;;;;13.47;52.68;100155.91;5073535;28;19913;-81
2023/12/27 10:37:37;;;;;;;;;;;;;;;13.53;52.43;100149.06;5073313;28;19913;-81
2023/12/27 10:40:04;;;;;;;;;;;;;;;13.62;51.43;100153.28;5073290;28;20003;-81
2023/12/27 10:42:29;;;;;;;;;;;;;;;13.68;53.50;100145.41;5071834;28;19912;-81
2023/12/27 10:44:54;;;;;;;;;;;;;;;13.73;53.77;100147.50;5073281;28;19920;-81
2023/12/27 10:47:21;;;;;;;;;;;;;;;13.77;52.35;100143.47;5073397;28;19923;-80
2023/12/27 10:49:47;;;;;;;;;;;;;;;13.81;52.56;100147.41;5071995;28;19912;-81
2023/12/27 10:52:13;;;;;;;;;;;;;;;13.89;49.22;100142.00;5072006;28;19912;-81
2023/12/27 10:54:43;;;;;;;;;;;;;;;14.03;51.91;100142.16;5071772;28;19919;-81
2023/12/27 10:57:11;;;;;;;;;;;;;;;14.08;49.90;100151.22;5073084;28;20385;-81
2023/12/27 10:59:37;;;;;;;;;;;;;;;14.10;49.16;100143.91;5073338;28;19912;-81
2023/12/27 11:02:06;;;;;;;;;;;;;;;14.11;49.48;100134.09;5073207;28;20470;-80
2023/12/27 11:04:31;;;;;;;;;;;;;;;14.12;49.63;100128.63;5071906;28;20011;-81
2023/12/27 11:06:57;;;;;;;;;;;;;;;14.15;51.00;100120.28;5073322;28;19956;-81
2023/12/27 11:09:24;;;;;;;;;;;;;;;14.17;50.72;100120.09;5071699;28;19920;-81
2023/12/27 11:11:50;;;;;;;;;;;;;;;14.18;51.48;100125.22;5072760;28;19913;-81
2023/12/27 11:14:19;;;;;;;;;;;;;;;14.18;51.13;100125.22;5071875;28;19974;-81
2023/12/27 11:16:46;;;;;;;;;;;;;;;14.18;50.61;100122.56;5071008;28;19991;-81
2023/12/27 11:19:12;;;;;;;;;;;;;;;14.18;51.34;100124.41;5071151;28;19963;-81
2023/12/27 11:21:37;;;;;;;;;;;;;;;14.20;50.52;100117.06;5072749;28;19973;-81
2023/12/27 11:24:04;;;;;;;;;;;;;;;14.26;50.48;100111.00;5072607;28;19912;-81
2023/12/27 11:26:33;;;;;;;;;;;;;;;14.28;49.61;100101.03;5072608;28;19919;-80
2023/12/27 11:28:59;;;;;;;;;;;;;;;14.28;49.33;100096.53;5070940;28;19916;-81
2023/12/27 11:31:25;;;;;;;;;;;;;;;14.35;49.53;100109.06;5072481;28;19919;-81
2023/12/27 11:33:50;;;;;;;;;;;;;;;14.42;45.98;100118.78;5072239;28;19913;-80
2023/12/27 11:36:17;;;;;;;;;;;;;;;14.45;47.83;100118.41;5070876;28;20393;-80
2023/12/27 11:38:44;;;;;;;;;;;;;;;14.45;47.60;100126.38;5072026;28;20305;-80
2023/12/27 11:41:10;;;;;;;;;;;;;;;14.50;46.97;100128.47;5072158;28;20006;-79
2023/12/27 11:43:56;;;;;;;;;;;;;;;14.51;45.76;100127.44;5072878;28;19927;-79
2023/12/27 11:46:26;;;;;;;;;;;;;;;14.54;45.50;100135.84;5070921;28;20397;-80
2023/12/27 11:48:51;;;;;;;;;;;;;;;14.59;48.29;100128.13;5071802;28;19916;-80
2023/12/27 11:51:26;;;;;;;;;;;;;;;14.59;46.83;100137.94;5071733;28;19918;-81
2023/12/27 11:53:52;;;;;;;;;;;;;;;14.58;46.34;100134.47;5070800;28;19943;-80
2023/12/27 11:56:18;;;;;;;;;;;;;;;14.59;47.75;100130.81;5070485;28;19912;-79
2023/12/27 11:58:44;;;;;;;;;;;;;;;14.58;48.48;100131.81;5071910;28;19912;-81
2023/12/27 12:01:19;;;;;;;;;;;;;;;14.60;48.33;100136.94;5070674;28;19912;-81
2023/12/27 12:03:47;;;;;;;;;;;;;;;14.59;46.39;100129.97;5070634;28;19966;-80
2023/12/27 12:06:26;;;;;;;;;;;;;;;14.65;47.55;100139.03;5070324;28;19963;-80
2023/12/27 12:08:52;;;;;;;;;;;;;;;14.65;46.73;100134.53;5071670;28;19935;-81
2023/12/27 12:11:21;;;;;;;;;;;;;;;14.68;47.55;100136.00;5070122;28;20479;-81
2023/12/27 12:13:47;;;;;;;;;;;;;;;14.66;47.62;100140.66;5071680;28;19913;-81
2023/12/27 12:16:12;;;;;;;;;;;;;;;14.63;45.46;100134.72;5071836;28;19976;-81
2023/12/27 12:18:39;;;;;;;;;;;;;;;14.65;47.41;100139.03;5072082;28;19913;-80
2023/12/27 12:21:04;;;;;;;;;;;;;;;14.69;47.36;100121.69;5070410;28;19913;-80
2023/12/27 12:23:33;;;;;;;;;;;;;;;14.71;48.46;100130.28;5071873;28;19966;-80
2023/12/27 12:26:00;;;;;;;;;;;;;;;14.74;48.13;100136.06;5071555;28;19974;-81
2023/12/27 12:28:25;;;;;;;;;;;;;;;14.76;48.04;100135.84;5071684;28;19922;-79
2023/12/27 12:30:51;;;;;;;;;;;;;;;14.76;47.83;100143.84;5072232;28;20010;-81
2023/12/27 12:33:16;;;;;;;;;;;;;;;14.76;46.94;100138.53;5071682;28;19920;-81
2023/12/27 12:35:42;;;;;;;;;;;;;;;14.75;47.50;100150.97;5070694;28;19944;-80
2023/12/27 12:38:07;;;;;;;;;;;;;;;14.72;44.64;100154.03;5071677;28;19916;-81
2023/12/27 12:40:33;;;;;;;;;;;;;;;14.73;46.21;100149.53;5070356;28;19913;-79